sensor_id;sensor_type;location;lat;lon;timestamp;pressure;altitude;pressure_sealevel;temperature;humidity
30618;BME280;17384;51.214;9.202;2023-04-22T00:02:05;98104.13;;;7.89;77.23
30618;BME280;17384;51.214;9.202;2023-04-22T00:04:31;98102.66;;;7.86;77.08
30618;BME280;17384;51.214;9.202;2023-04-22T00:06:58;98104.66;;;7.97;76.16
30618;BME280;17384;51.214;9.202;2023-04-22T00:09:23;98104.03;;;8.02;75.38
30618;BME280;17384;51.214;9.202;2023-04-22T00:11:49;98102.88;;;7.91;75.71
30618;BME280;17384;51.214;9.202;2023-04-22T00:14:15;98093.56;;;7.80;76.24
30618;BME280;17384;51.214;9.202;2023-04-22T00:16:40;98097.91;;;7.81;76.23
30618;BME280;17384;51.214;9.202;2023-04-22T00:19:06;98089.94;;;7.93;75.66
30618;BME280;17384;51.214;9.202;2023-04-22T00:21:31;98091.88;;;7.86;76.00
30618;BME280;17384;51.214;9.202;2023-04-22T00:23:57;98087.56;;;7.72;77.04
30618;BME280;17384;51.214;9.202;2023-04-22T00:26:23;98090.34;;;7.59;77.54
30618;BME280;17384;51.214;9.202;2023-04-22T00:28:49;98084.09;;;7.58;77.76
30618;BME280;17384;51.214;9.202;2023-04-22T00:31:14;98087.66;;;7.45;77.81
30618;BME280;17384;51.214;9.202;2023-04-22T00:33:40;98088.56;;;7.26;78.34
30618;BME280;17384;51.214;9.202;2023-04-22T00:36:05;98087.34;;;7.16;78.65
30618;BME280;17384;51.214;9.202;2023-04-22T00:38:31;98081.78;;;6.97;80.09
30618;BME280;17384;51.214;9.202;2023-04-22T00:40:56;98082.00;;;6.89;80.05
30618;BME280;17384;51.214;9.202;2023-04-22T00:43:22;98085.72;;;6.88;79.71
30618;BME280;17384;51.214;9.202;2023-04-22T00:45:48;98077.22;;;6.85;79.50
30618;BME280;17384;51.214;9.202;2023-04-22T00:48:14;98080.78;;;6.72;80.08
30618;BME280;17384;51.214;9.202;2023-04-22T00:50:39;98091.78;;;6.77;79.77
30618;BME280;17384;51.214;9.202;2023-04-22T00:53:05;98083.47;;;6.72;80.24
30618;BME280;17384;51.214;9.202;2023-04-22T00:55:31;98087.00;;;6.79;79.87
30618;BME280;17384;51.214;9.202;2023-04-22T00:57:57;98085.97;;;6.80;80.05
30618;BME280;17384;51.214;9.202;2023-04-22T01:00:25;98086.81;;;6.81;79.93
30618;BME280;17384;51.214;9.202;2023-04-22T01:02:54;98082.03;;;6.50;80.77
30618;BME280;17384;51.214;9.202;2023-04-22T01:05:20;98082.25;;;6.55;80.43
30618;BME280;17384;51.214;9.202;2023-04-22T01:07:46;98084.97;;;6.55;80.03
30618;BME280;17384;51.214;9.202;2023-04-22T01:10:12;98087.44;;;6.43;80.73
30618;BME280;17384;51.214;9.202;2023-04-22T01:12:37;98084.31;;;6.46;80.72
30618;BME280;17384;51.214;9.202;2023-04-22T01:15:03;98091.16;;;6.49;80.75
30618;BME280;17384;51.214;9.202;2023-04-22T01:17:30;98079.56;;;6.55;80.58
30618;BME280;17384;51.214;9.202;2023-04-22T01:19:57;98090.34;;;6.48;80.50
30618;BME280;17384;51.214;9.202;2023-04-22T01:22:25;98081.63;;;6.46;80.77
30618;BME280;17384;51.214;9.202;2023-04-22T01:24:52;98084.94;;;6.48;80.91
30618;BME280;17384;51.214;9.202;2023-04-22T01:27:18;98086.63;;;6.56;81.07
30618;BME280;17384;51.214;9.202;2023-04-22T01:29:43;98081.63;;;6.66;81.67
30618;BME280;17384;51.214;9.202;2023-04-22T01:32:09;98087.84;;;6.73;81.87
30618;BME280;17384;51.214;9.202;2023-04-22T01:34:35;98099.41;;;6.93;81.85
30618;BME280;17384;51.214;9.202;2023-04-22T01:37:00;98096.09;;;6.91;82.27
30618;BME280;17384;51.214;9.202;2023-04-22T01:39:26;98094.88;;;6.74;82.09
30618;BME280;17384;51.214;9.202;2023-04-22T01:41:52;98095.53;;;6.50;82.04
30618;BME280;17384;51.214;9.202;2023-04-22T01:44:17;98096.53;;;6.35;82.41
30618;BME280;17384;51.214;9.202;2023-04-22T01:46:44;98101.72;;;6.37;82.38
30618;BME280;17384;51.214;9.202;2023-04-22T01:49:09;98098.81;;;6.32;82.17
30618;BME280;17384;51.214;9.202;2023-04-22T01:51:35;98102.13;;;6.34;81.87
30618;BME280;17384;51.214;9.202;2023-04-22T01:54:01;98108.75;;;6.18;82.19
30618;BME280;17384;51.214;9.202;2023-04-22T01:56:28;98100.66;;;6.18;82.69
30618;BME280;17384;51.214;9.202;2023-04-22T01:58:53;98102.72;;;6.16;83.08
30618;BME280;17384;51.214;9.202;2023-04-22T02:01:19;98100.66;;;6.18;82.98
30618;BME280;17384;51.214;9.202;2023-04-22T02:03:44;98100.66;;;6.18;82.96
30618;BME280;17384;51.214;9.202;2023-04-22T02:06:10;98108.34;;;6.21;83.49
30618;BME280;17384;51.214;9.202;2023-04-22T02:08:35;98105.88;;;6.26;83.57
30618;BME280;17384;51.214;9.202;2023-04-22T02:11:01;98108.56;;;6.26;83.94
30618;BME280;17384;51.214;9.202;2023-04-22T02:13:34;98115.78;;;6.32;83.91
30618;BME280;17384;51.214;9.202;2023-04-22T02:15:59;98113.53;;;6.42;83.53
30618;BME280;17384;51.214;9.202;2023-04-22T02:18:25;98110.63;;;6.37;83.29
30618;BME280;17384;51.214;9.202;2023-04-22T02:20:50;98100.88;;;6.30;83.01
30618;BME280;17384;51.214;9.202;2023-04-22T02:23:16;98106.69;;;6.33;83.45
30618;BME280;17384;51.214;9.202;2023-04-22T02:25:49;98104.41;;;6.30;83.35
30618;BME280;17384;51.214;9.202;2023-04-22T02:28:15;98115.19;;;6.24;83.97
30618;BME280;17384;51.214;9.202;2023-04-22T02:30:40;98097.78;;;6.26;84.21
30618;BME280;17384;51.214;9.202;2023-04-22T02:33:06;98104.84;;;6.27;84.35
30618;BME280;17384;51.214;9.202;2023-04-22T02:35:31;98100.88;;;6.23;84.42
30618;BME280;17384;51.214;9.202;2023-04-22T02:37:57;98111.03;;;6.21;85.11
30618;BME280;17384;51.214;9.202;2023-04-22T02:40:22;98109.16;;;6.15;85.82
30618;BME280;17384;51.214;9.202;2023-04-22T02:42:47;98098.38;;;6.15;86.49
30618;BME280;17384;51.214;9.202;2023-04-22T02:45:13;98099.03;;;6.24;85.31
30618;BME280;17384;51.214;9.202;2023-04-22T02:47:39;98112.28;;;6.25;84.99
30618;BME280;17384;51.214;9.202;2023-04-22T02:50:06;98107.53;;;6.27;84.86
30618;BME280;17384;51.214;9.202;2023-04-22T02:52:32;98103.56;;;6.23;84.64
30618;BME280;17384;51.214;9.202;2023-04-22T02:54:58;98112.69;;;6.22;85.53
30618;BME280;17384;51.214;9.202;2023-04-22T02:57:24;98118.91;;;6.29;85.59
30618;BME280;17384;51.214;9.202;2023-04-22T02:59:50;98117.66;;;6.32;84.90
30618;BME280;17384;51.214;9.202;2023-04-22T03:02:15;98109.56;;;6.32;85.03
30618;BME280;17384;51.214;9.202;2023-04-22T03:04:41;98105.25;;;6.37;84.99
30618;BME280;17384;51.214;9.202;2023-04-22T03:07:06;98108.56;;;6.39;85.16
30618;BME280;17384;51.214;9.202;2023-04-22T03:09:32;98106.28;;;6.50;85.09
30618;BME280;17384;51.214;9.202;2023-04-22T03:11:57;98108.56;;;6.46;84.93
30618;BME280;17384;51.214;9.202;2023-04-22T03:14:23;98113.97;;;6.46;85.30
30618;BME280;17384;51.214;9.202;2023-04-22T03:16:48;98118.94;;;6.49;85.55
30618;BME280;17384;51.214;9.202;2023-04-22T03:19:14;98107.34;;;6.49;85.84
30618;BME280;17384;51.214;9.202;2023-04-22T03:21:40;98107.34;;;6.49;85.97
30618;BME280;17384;51.214;9.202;2023-04-22T03:24:06;98106.91;;;6.38;86.02
30618;BME280;17384;51.214;9.202;2023-04-22T03:26:31;98090.31;;;6.41;86.09
30618;BME280;17384;51.214;9.202;2023-04-22T03:28:57;98102.16;;;6.47;85.46
30618;BME280;17384;51.214;9.202;2023-04-22T03:31:22;98095.31;;;6.44;85.44
30618;BME280;17384;51.214;9.202;2023-04-22T03:33:47;98099.25;;;6.49;85.17
30618;BME280;17384;51.214;9.202;2023-04-22T03:36:13;98091.16;;;6.49;85.38
30618;BME280;17384;51.214;9.202;2023-04-22T03:38:38;98095.72;;;6.55;85.80
30618;BME280;17384;51.214;9.202;2023-04-22T03:41:04;98104.41;;;6.57;86.27
30618;BME280;17384;51.214;9.202;2023-04-22T03:43:29;98104.22;;;6.52;86.32
30618;BME280;17384;51.214;9.202;2023-04-22T03:45:55;98104.63;;;6.35;86.50
30618;BME280;17384;51.214;9.202;2023-04-22T03:48:20;98095.28;;;6.31;86.58
30618;BME280;17384;51.214;9.202;2023-04-22T03:50:46;98091.97;;;6.36;86.65
30618;BME280;17384;51.214;9.202;2023-04-22T03:53:11;98096.94;;;6.39;86.09
30618;BME280;17384;51.214;9.202;2023-04-22T03:55:36;98095.31;;;6.44;85.95
30618;BME280;17384;51.214;9.202;2023-04-22T03:58:02;98098.63;;;6.47;86.16
30618;BME280;17384;51.214;9.202;2023-04-22T04:00:27;98104.63;;;6.49;86.15
30618;BME280;17384;51.214;9.202;2023-04-22T04:02:53;98101.31;;;6.47;86.21
30618;BME280;17384;51.214;9.202;2023-04-22T04:05:18;98088.66;;;6.40;86.77
30618;BME280;17384;51.214;9.202;2023-04-22T04:07:44;98092.81;;;6.43;87.36
30618;BME280;17384;51.214;9.202;2023-04-22T04:10:10;98094.06;;;6.54;87.30
30618;BME280;17384;51.214;9.202;2023-04-22T04:12:35;98081.81;;;6.58;86.56
30618;BME280;17384;51.214;9.202;2023-04-22T04:15:00;98096.53;;;6.62;86.48
30618;BME280;17384;51.214;9.202;2023-04-22T04:17:26;98096.13;;;6.65;86.15
30618;BME280;17384;51.214;9.202;2023-04-22T04:19:53;98087.63;;;6.61;86.42
30618;BME280;17384;51.214;9.202;2023-04-22T04:22:19;98097.38;;;6.62;86.60
30618;BME280;17384;51.214;9.202;2023-04-22T04:24:45;98090.75;;;6.65;86.67
30618;BME280;17384;51.214;9.202;2023-04-22T04:27:12;98083.91;;;6.62;87.29
30618;BME280;17384;51.214;9.202;2023-04-22T04:29:38;98084.53;;;6.71;87.23
30618;BME280;17384;51.214;9.202;2023-04-22T04:32:04;98082.44;;;6.79;86.97
30618;BME280;17384;51.214;9.202;2023-04-22T04:34:29;98072.50;;;6.80;86.72
30618;BME280;17384;51.214;9.202;2023-04-22T04:36:59;98075.59;;;6.77;87.00
30618;BME280;17384;51.214;9.202;2023-04-22T04:39:25;98066.91;;;6.75;86.43
30618;BME280;17384;51.214;9.202;2023-04-22T04:41:53;98071.66;;;6.79;86.65
30618;BME280;17384;51.214;9.202;2023-04-22T04:44:20;98072.47;;;6.93;87.34
30618;BME280;17384;51.214;9.202;2023-04-22T04:46:46;98072.03;;;6.96;87.00
30618;BME280;17384;51.214;9.202;2023-04-22T04:49:12;98074.53;;;6.98;87.13
30618;BME280;17384;51.214;9.202;2023-04-22T04:51:38;98073.28;;;7.07;85.94
30618;BME280;17384;51.214;9.202;2023-04-22T04:54:03;98083.84;;;7.08;85.65
30618;BME280;17384;51.214;9.202;2023-04-22T04:56:29;98077.00;;;7.06;85.74
30618;BME280;17384;51.214;9.202;2023-04-22T04:58:55;98082.19;;;7.07;85.62
30618;BME280;17384;51.214;9.202;2023-04-22T05:01:20;98088.44;;;7.01;85.85
30618;BME280;17384;51.214;9.202;2023-04-22T05:03:46;98079.72;;;6.99;85.96
30618;BME280;17384;51.214;9.202;2023-04-22T05:06:11;98089.06;;;7.03;86.25
30618;BME280;17384;51.214;9.202;2023-04-22T05:08:37;98090.03;;;7.16;86.33
30618;BME280;17384;51.214;9.202;2023-04-22T05:11:02;98097.28;;;7.28;85.95
30618;BME280;17384;51.214;9.202;2023-04-22T05:13:28;98095.78;;;7.39;85.70
30618;BME280;17384;51.214;9.202;2023-04-22T05:15:54;98100.94;;;7.54;85.67
30618;BME280;17384;51.214;9.202;2023-04-22T05:18:20;98088.03;;;7.62;85.76
30618;BME280;17384;51.214;9.202;2023-04-22T05:20:46;98108.09;;;7.79;85.42
30618;BME280;17384;51.214;9.202;2023-04-22T05:23:11;98106.97;;;7.94;84.86
30618;BME280;17384;51.214;9.202;2023-04-22T05:25:37;98108.84;;;8.31;83.75
30618;BME280;17384;51.214;9.202;2023-04-22T05:28:02;98092.91;;;8.55;82.67
30618;BME280;17384;51.214;9.202;2023-04-22T05:30:28;98100.03;;;8.74;82.36
30618;BME280;17384;51.214;9.202;2023-04-22T05:32:53;98102.94;;;8.97;81.66
30618;BME280;17384;51.214;9.202;2023-04-22T05:35:19;98105.69;;;9.15;81.73
30618;BME280;17384;51.214;9.202;2023-04-22T05:37:44;98106.44;;;9.23;81.62
30618;BME280;17384;51.214;9.202;2023-04-22T05:40:10;98091.41;;;9.27;81.04
30618;BME280;17384;51.214;9.202;2023-04-22T05:42:35;98106.50;;;9.34;80.22
30618;BME280;17384;51.214;9.202;2023-04-22T05:45:01;98107.34;;;9.35;79.71
30618;BME280;17384;51.214;9.202;2023-04-22T05:47:26;98099.91;;;9.48;79.99
30618;BME280;17384;51.214;9.202;2023-04-22T05:49:52;98102.44;;;9.62;79.18
30618;BME280;17384;51.214;9.202;2023-04-22T05:52:21;98099.97;;;9.78;79.48
30618;BME280;17384;51.214;9.202;2023-04-22T05:54:46;98093.00;;;10.01;78.95
30618;BME280;17384;51.214;9.202;2023-04-22T05:57:14;98093.41;;;10.16;78.60
30618;BME280;17384;51.214;9.202;2023-04-22T05:59:43;98088.91;;;10.28;77.27
30618;BME280;17384;51.214;9.202;2023-04-22T06:02:08;98102.38;;;10.46;76.78
30618;BME280;17384;51.214;9.202;2023-04-22T06:04:33;98094.19;;;10.65;76.14
30618;BME280;17384;51.214;9.202;2023-04-22T06:06:59;98085.25;;;10.88;75.34
30618;BME280;17384;51.214;9.202;2023-04-22T06:09:25;98092.09;;;10.90;75.05
30618;BME280;17384;51.214;9.202;2023-04-22T06:11:53;98090.19;;;11.02;74.93
30618;BME280;17384;51.214;9.202;2023-04-22T06:14:22;98091.72;;;11.10;74.24
30618;BME280;17384;51.214;9.202;2023-04-22T06:16:50;98087.59;;;11.19;73.75
30618;BME280;17384;51.214;9.202;2023-04-22T06:19:17;98093.97;;;11.36;72.68
30618;BME280;17384;51.214;9.202;2023-04-22T06:21:42;98091.47;;;11.46;73.82
30618;BME280;17384;51.214;9.202;2023-04-22T06:24:09;98093.69;;;11.61;72.71
30618;BME280;17384;51.214;9.202;2023-04-22T06:26:38;98083.34;;;11.46;71.65
30618;BME280;17384;51.214;9.202;2023-04-22T06:29:03;98097.75;;;11.47;71.58
30618;BME280;17384;51.214;9.202;2023-04-22T06:31:33;98095.03;;;11.47;72.22
30618;BME280;17384;51.214;9.202;2023-04-22T06:33:58;98091.44;;;11.70;72.43
30618;BME280;17384;51.214;9.202;2023-04-22T06:36:25;98105.13;;;11.63;70.55
30618;BME280;17384;51.214;9.202;2023-04-22T06:38:51;98097.53;;;11.89;71.70
30618;BME280;17384;51.214;9.202;2023-04-22T06:41:17;98101.69;;;12.19;70.48
30618;BME280;17384;51.214;9.202;2023-04-22T06:43:43;98098.16;;;12.36;70.75
30618;BME280;17384;51.214;9.202;2023-04-22T06:46:08;98102.59;;;12.53;71.26
30618;BME280;17384;51.214;9.202;2023-04-22T06:48:34;98092.34;;;12.61;70.09
30618;BME280;17384;51.214;9.202;2023-04-22T06:51:00;98099.28;;;12.68;68.72
30618;BME280;17384;51.214;9.202;2023-04-22T06:53:26;98104.44;;;12.81;68.55
30618;BME280;17384;51.214;9.202;2023-04-22T06:55:52;98104.59;;;13.08;67.89
30618;BME280;17384;51.214;9.202;2023-04-22T06:58:19;98102.59;;;13.37;65.69
30618;BME280;17384;51.214;9.202;2023-04-22T07:00:45;98099.41;;;13.62;64.60
30618;BME280;17384;51.214;9.202;2023-04-22T07:03:11;98104.09;;;13.88;63.83
30618;BME280;17384;51.214;9.202;2023-04-22T07:05:36;98113.22;;;14.21;63.68
30618;BME280;17384;51.214;9.202;2023-04-22T07:08:02;98108.41;;;14.55;62.14
30618;BME280;17384;51.214;9.202;2023-04-22T07:10:27;98095.97;;;14.96;59.18
30618;BME280;17384;51.214;9.202;2023-04-22T07:12:53;98096.00;;;15.06;57.85
30618;BME280;17384;51.214;9.202;2023-04-22T07:15:19;98104.59;;;15.57;57.03
30618;BME280;17384;51.214;9.202;2023-04-22T07:17:44;98101.31;;;15.60;58.57
30618;BME280;17384;51.214;9.202;2023-04-22T07:20:10;98102.88;;;15.98;56.05
30618;BME280;17384;51.214;9.202;2023-04-22T07:22:38;98106.06;;;16.52;54.67
30618;BME280;17384;51.214;9.202;2023-04-22T07:25:04;98101.06;;;16.24;55.28
30618;BME280;17384;51.214;9.202;2023-04-22T07:30:12;98102.25;;;16.58;53.16
30618;BME280;17384;51.214;9.202;2023-04-22T07:32:37;98090.78;;;16.77;53.24
30618;BME280;17384;51.214;9.202;2023-04-22T07:35:04;98076.78;;;17.29;51.22
30618;BME280;17384;51.214;9.202;2023-04-22T07:37:29;98087.47;;;17.25;52.18
30618;BME280;17384;51.214;9.202;2023-04-22T07:39:55;98089.94;;;17.32;52.15
30618;BME280;17384;51.214;9.202;2023-04-22T07:42:20;98086.38;;;17.32;51.90
30618;BME280;17384;51.214;9.202;2023-04-22T07:44:45;98082.03;;;16.85;53.57
30618;BME280;17384;51.214;9.202;2023-04-22T07:47:11;98086.88;;;16.47;53.72
30618;BME280;17384;51.214;9.202;2023-04-22T07:49:36;98079.81;;;16.72;52.90
30618;BME280;17384;51.214;9.202;2023-04-22T07:52:02;98083.38;;;16.72;54.85
30618;BME280;17384;51.214;9.202;2023-04-22T07:54:27;98084.22;;;16.68;54.70
30618;BME280;17384;51.214;9.202;2023-04-22T07:56:53;98085.75;;;16.33;53.81
30618;BME280;17384;51.214;9.202;2023-04-22T07:59:18;98073.47;;;16.56;55.56
30618;BME280;17384;51.214;9.202;2023-04-22T08:01:44;98074.03;;;16.53;54.62
30618;BME280;17384;51.214;9.202;2023-04-22T08:04:11;98078.13;;;16.50;54.29
30618;BME280;17384;51.214;9.202;2023-04-22T08:06:37;98069.38;;;16.53;54.34
30618;BME280;17384;51.214;9.202;2023-04-22T08:09:02;98067.69;;;16.42;56.58
30618;BME280;17384;51.214;9.202;2023-04-22T08:11:29;98061.69;;;16.40;54.06
30618;BME280;17384;51.214;9.202;2023-04-22T08:13:54;98063.56;;;16.30;55.11
30618;BME280;17384;51.214;9.202;2023-04-22T08:16:19;98068.19;;;16.19;55.77
30618;BME280;17384;51.214;9.202;2023-04-22T08:18:45;98076.03;;;15.90;55.48
30618;BME280;17384;51.214;9.202;2023-04-22T08:21:10;98060.94;;;15.77;56.47
30618;BME280;17384;51.214;9.202;2023-04-22T08:23:36;98062.72;;;16.09;55.53
30618;BME280;17384;51.214;9.202;2023-04-22T08:26:02;98066.44;;;15.82;55.38
30618;BME280;17384;51.214;9.202;2023-04-22T08:28:28;98058.56;;;15.96;55.90
30618;BME280;17384;51.214;9.202;2023-04-22T08:30:56;98058.34;;;16.13;55.13
30618;BME280;17384;51.214;9.202;2023-04-22T08:33:22;98066.66;;;16.69;55.05
30618;BME280;17384;51.214;9.202;2023-04-22T08:35:49;98060.06;;;16.54;55.39
30618;BME280;17384;51.214;9.202;2023-04-22T08:38:14;98065.56;;;17.20;54.08
30618;BME280;17384;51.214;9.202;2023-04-22T08:40:40;98067.72;;;17.34;53.63
30618;BME280;17384;51.214;9.202;2023-04-22T08:43:06;98068.28;;;17.25;52.98
30618;BME280;17384;51.214;9.202;2023-04-22T08:45:32;98056.50;;;17.30;53.23
30618;BME280;17384;51.214;9.202;2023-04-22T08:47:58;98071.56;;;17.38;53.23
30618;BME280;17384;51.214;9.202;2023-04-22T08:50:23;98064.97;;;17.49;51.57
30618;BME280;17384;51.214;9.202;2023-04-22T08:52:49;98064.78;;;16.95;52.93
30618;BME280;17384;51.214;9.202;2023-04-22T08:55:15;98064.19;;;17.08;51.87
30618;BME280;17384;51.214;9.202;2023-04-22T08:57:40;98061.47;;;16.82;53.23
30618;BME280;17384;51.214;9.202;2023-04-22T09:00:07;98054.06;;;16.78;53.25
30618;BME280;17384;51.214;9.202;2023-04-22T09:02:35;98057.06;;;17.22;53.34
30618;BME280;17384;51.214;9.202;2023-04-22T09:05:02;98060.09;;;17.20;52.00
30618;BME280;17384;51.214;9.202;2023-04-22T09:07:30;98055.16;;;17.12;51.19
30618;BME280;17384;51.214;9.202;2023-04-22T09:09:57;98038.06;;;17.56;50.75
30618;BME280;17384;51.214;9.202;2023-04-22T09:12:23;98052.19;;;17.99;49.04
30618;BME280;17384;51.214;9.202;2023-04-22T09:14:50;98046.41;;;18.05;48.72
30618;BME280;17384;51.214;9.202;2023-04-22T09:17:16;98042.09;;;18.77;49.92
30618;BME280;17384;51.214;9.202;2023-04-22T09:19:51;98043.31;;;18.95;48.30
30618;BME280;17384;51.214;9.202;2023-04-22T09:22:21;98044.84;;;19.11;49.13
30618;BME280;17384;51.214;9.202;2023-04-22T09:24:49;98058.41;;;18.64;47.61
30618;BME280;17384;51.214;9.202;2023-04-22T09:27:16;98043.81;;;19.02;47.89
30618;BME280;17384;51.214;9.202;2023-04-22T09:29:49;98044.38;;;18.99;47.42
30618;BME280;17384;51.214;9.202;2023-04-22T09:32:15;98040.66;;;19.43;47.37
30618;BME280;17384;51.214;9.202;2023-04-22T09:34:51;98035.06;;;19.24;48.00
30618;BME280;17384;51.214;9.202;2023-04-22T09:37:19;98047.47;;;19.74;47.32
30618;BME280;17384;51.214;9.202;2023-04-22T09:39:47;98049.94;;;19.52;46.72
30618;BME280;17384;51.214;9.202;2023-04-22T09:42:14;98036.56;;;18.82;47.96
30618;BME280;17384;51.214;9.202;2023-04-22T09:44:40;98035.22;;;19.38;46.81
30618;BME280;17384;51.214;9.202;2023-04-22T09:47:05;98034.50;;;19.56;48.34
30618;BME280;17384;51.214;9.202;2023-04-22T09:49:35;98043.38;;;19.96;45.02
30618;BME280;17384;51.214;9.202;2023-04-22T09:52:04;98037.56;;;19.49;45.65
30618;BME280;17384;51.214;9.202;2023-04-22T09:54:30;98029.00;;;19.99;46.13
30618;BME280;17384;51.214;9.202;2023-04-22T09:56:55;98027.25;;;20.08;47.00
30618;BME280;17384;51.214;9.202;2023-04-22T09:59:26;98028.09;;;19.84;46.09
30618;BME280;17384;51.214;9.202;2023-04-22T10:01:56;98026.94;;;20.28;45.89
30618;BME280;17384;51.214;9.202;2023-04-22T10:04:22;98029.22;;;20.02;44.80
30618;BME280;17384;51.214;9.202;2023-04-22T10:06:50;98021.06;;;20.35;45.37
30618;BME280;17384;51.214;9.202;2023-04-22T10:09:18;98018.25;;;20.21;44.02
30618;BME280;17384;51.214;9.202;2023-04-22T10:11:44;98014.03;;;20.47;46.37
30618;BME280;17384;51.214;9.202;2023-04-22T10:14:10;98021.25;;;20.43;45.39
30618;BME280;17384;51.214;9.202;2023-04-22T10:16:38;98015.34;;;20.31;44.86
30618;BME280;17384;51.214;9.202;2023-04-22T10:19:06;98008.41;;;20.71;44.87
30618;BME280;17384;51.214;9.202;2023-04-22T10:21:34;98014.69;;;20.77;44.02
30618;BME280;17384;51.214;9.202;2023-04-22T10:23:59;98017.72;;;20.56;44.31
30618;BME280;17384;51.214;9.202;2023-04-22T10:26:41;98022.59;;;20.46;43.44
30618;BME280;17384;51.214;9.202;2023-04-22T10:29:17;98038.75;;;20.52;44.11
30618;BME280;17384;51.214;9.202;2023-04-22T10:32:03;98029.03;;;20.36;44.15
30618;BME280;17384;51.214;9.202;2023-04-22T10:34:30;98011.69;;;20.36;42.76
30618;BME280;17384;51.214;9.202;2023-04-22T10:37:08;98018.19;;;20.64;44.88
30618;BME280;17384;51.214;9.202;2023-04-22T10:39:35;98026.59;;;20.16;43.45
30618;BME280;17384;51.214;9.202;2023-04-22T10:44:27;98006.31;;;20.25;43.58
30618;BME280;17384;51.214;9.202;2023-04-22T10:46:55;98006.03;;;20.27;46.59
30618;BME280;17384;51.214;9.202;2023-04-22T10:49:23;98002.91;;;20.15;44.36
30618;BME280;17384;51.214;9.202;2023-04-22T10:57:19;97985.16;;;20.45;44.56
30618;BME280;17384;51.214;9.202;2023-04-22T10:59:54;97984.69;;;20.19;43.25
30618;BME280;17384;51.214;9.202;2023-04-22T11:02:22;97950.97;;;20.46;43.40
30618;BME280;17384;51.214;9.202;2023-04-22T11:04:48;97990.03;;;20.29;41.66
30618;BME280;17384;51.214;9.202;2023-04-22T11:09:46;98004.72;;;20.43;45.00
30618;BME280;17384;51.214;9.202;2023-04-22T11:15:14;97973.56;;;19.86;44.75
30618;BME280;17384;51.214;9.202;2023-04-22T11:17:48;97975.19;;;19.69;43.37
30618;BME280;17384;51.214;9.202;2023-04-22T11:20:14;97969.97;;;19.67;43.12
30618;BME280;17384;51.214;9.202;2023-04-22T11:22:46;97953.22;;;19.64;44.60
30618;BME280;17384;51.214;9.202;2023-04-22T11:25:12;97964.19;;;19.69;43.53
30618;BME280;17384;51.214;9.202;2023-04-22T11:27:40;97974.78;;;20.18;43.33
30618;BME280;17384;51.214;9.202;2023-04-22T11:30:07;97974.19;;;20.21;41.83
30618;BME280;17384;51.214;9.202;2023-04-22T11:32:33;97973.94;;;20.36;41.19
30618;BME280;17384;51.214;9.202;2023-04-22T11:35:05;97967.38;;;20.70;41.18
30618;BME280;17384;51.214;9.202;2023-04-22T11:37:41;97966.56;;;20.83;40.03
30618;BME280;17384;51.214;9.202;2023-04-22T11:40:11;97956.34;;;20.70;40.29
30618;BME280;17384;51.214;9.202;2023-04-22T11:42:37;97947.75;;;21.17;39.18
30618;BME280;17384;51.214;9.202;2023-04-22T11:45:04;97976.50;;;21.44;38.43
30618;BME280;17384;51.214;9.202;2023-04-22T11:47:31;97958.72;;;21.36;39.83
30618;BME280;17384;51.214;9.202;2023-04-22T11:49:58;97956.91;;;21.59;38.91
30618;BME280;17384;51.214;9.202;2023-04-22T11:55:09;97950.13;;;21.65;38.66
30618;BME280;17384;51.214;9.202;2023-04-22T11:57:35;97948.91;;;21.57;38.46
30618;BME280;17384;51.214;9.202;2023-04-22T12:00:01;97952.00;;;21.28;36.55
30618;BME280;17384;51.214;9.202;2023-04-22T12:02:26;97922.50;;;21.79;36.30
30618;BME280;17384;51.214;9.202;2023-04-22T12:04:51;97935.19;;;21.66;37.44
30618;BME280;17384;51.214;9.202;2023-04-22T12:07:17;97950.88;;;21.30;37.95
30618;BME280;17384;51.214;9.202;2023-04-22T12:09:42;97945.75;;;21.23;37.42
30618;BME280;17384;51.214;9.202;2023-04-22T12:12:08;97935.81;;;21.36;36.26
30618;BME280;17384;51.214;9.202;2023-04-22T12:14:33;97953.69;;;21.66;36.40
30618;BME280;17384;51.214;9.202;2023-04-22T12:17:03;97944.47;;;21.15;36.48
30618;BME280;17384;51.214;9.202;2023-04-22T12:19:30;97946.66;;;21.59;36.67
30618;BME280;17384;51.214;9.202;2023-04-22T12:21:56;97937.38;;;20.82;37.77
30618;BME280;17384;51.214;9.202;2023-04-22T12:24:27;97932.41;;;20.98;38.58
30618;BME280;17384;51.214;9.202;2023-04-22T12:26:54;97937.44;;;20.63;39.81
30618;BME280;17384;51.214;9.202;2023-04-22T12:29:30;97934.28;;;20.70;39.15
30618;BME280;17384;51.214;9.202;2023-04-22T12:31:56;97930.91;;;21.05;38.34
30618;BME280;17384;51.214;9.202;2023-04-22T12:34:22;97943.34;;;21.03;40.25
30618;BME280;17384;51.214;9.202;2023-04-22T12:36:48;97935.03;;;20.89;38.48
30618;BME280;17384;51.214;9.202;2023-04-22T12:39:13;97920.78;;;21.14;36.82
30618;BME280;17384;51.214;9.202;2023-04-22T12:41:39;97943.38;;;21.44;37.73
30618;BME280;17384;51.214;9.202;2023-04-22T12:44:05;97922.97;;;21.31;36.72
30618;BME280;17384;51.214;9.202;2023-04-22T12:46:32;97934.22;;;20.88;39.09
30618;BME280;17384;51.214;9.202;2023-04-22T12:48:58;97927.88;;;20.88;38.30
30618;BME280;17384;51.214;9.202;2023-04-22T12:51:23;97917.19;;;21.14;37.80
30618;BME280;17384;51.214;9.202;2023-04-22T12:53:49;97911.47;;;21.10;38.05
30618;BME280;17384;51.214;9.202;2023-04-22T12:56:14;97920.09;;;21.22;38.54
30618;BME280;17384;51.214;9.202;2023-04-22T12:58:40;97911.16;;;21.80;37.00
30618;BME280;17384;51.214;9.202;2023-04-22T13:01:05;97923.22;;;21.84;37.28
30618;BME280;17384;51.214;9.202;2023-04-22T13:03:31;97914.13;;;21.84;38.57
30618;BME280;17384;51.214;9.202;2023-04-22T13:05:56;97920.25;;;21.67;37.62
30618;BME280;17384;51.214;9.202;2023-04-22T13:08:21;97921.94;;;21.27;39.13
30618;BME280;17384;51.214;9.202;2023-04-22T13:10:47;97918.03;;;21.42;39.74
30618;BME280;17384;51.214;9.202;2023-04-22T13:13:13;97914.78;;;21.26;40.59
30618;BME280;17384;51.214;9.202;2023-04-22T13:15:38;97909.63;;;20.46;39.26
30618;BME280;17384;51.214;9.202;2023-04-22T13:18:04;97909.63;;;20.78;39.58
30618;BME280;17384;51.214;9.202;2023-04-22T13:20:30;97915.16;;;21.19;38.33